createdAt,value
2023-02-08T00:00:53.953Z,48.25
2023-02-08T00:03:20.577Z,49.25
2023-02-08T00:05:47.123Z,45.35
2023-02-08T00:08:13.616Z,41.00
2023-02-08T00:10:40.548Z,38.80
2023-02-08T00:13:09.409Z,43.63
2023-02-08T00:15:40.535Z,35.45
2023-02-08T00:18:07.040Z,43.17
2023-02-08T00:20:33.601Z,43.38
2023-02-08T00:23:00.131Z,39.53
2023-02-08T00:25:26.588Z,44.65
2023-02-08T00:27:53.099Z,48.15
2023-02-08T00:30:19.678Z,45.65
2023-02-08T00:32:47.667Z,48.83
2023-02-08T00:35:14.430Z,43.22
2023-02-08T00:37:42.419Z,51.75
2023-02-08T00:40:10.969Z,49.92
2023-02-08T00:42:37.743Z,47.75
2023-02-08T00:45:05.021Z,50.63
2023-02-08T00:47:31.592Z,45.47
2023-02-08T00:49:59.740Z,52.03
2023-02-08T00:52:27.622Z,49.40
2023-02-08T00:54:54.278Z,50.83
2023-02-08T00:57:20.877Z,44.67
2023-02-08T00:59:47.850Z,47.10
2023-02-08T01:02:15.695Z,46.05
2023-02-08T01:04:42.224Z,52.97
2023-02-08T01:07:09.101Z,48.97
2023-02-08T01:09:37.555Z,53.28
2023-02-08T01:12:04.093Z,53.45
2023-02-08T01:14:30.822Z,45.53
2023-02-08T01:16:58.633Z,49.45
2023-02-08T01:19:25.122Z,44.95
2023-02-08T01:21:51.693Z,51.45
2023-02-08T01:24:18.166Z,47.33
2023-02-08T01:26:44.684Z,52.53
2023-02-08T01:29:11.569Z,44.38
2023-02-08T01:31:40.914Z,50.90
2023-02-08T01:34:09.073Z,41.63
2023-02-08T01:36:36.136Z,51.17
2023-02-08T01:39:04.151Z,54.25
2023-02-08T01:41:36.712Z,47.42
2023-02-08T01:44:11.930Z,44.65
2023-02-08T01:46:41.007Z,44.17
2023-02-08T01:49:14.135Z,42.80
2023-02-08T01:51:46.937Z,44.80
2023-02-08T01:54:16.892Z,48.92
2023-02-08T01:56:45.862Z,47.75
2023-02-08T01:59:28.422Z,43.05
2023-02-08T02:01:56.999Z,41.15
2023-02-08T02:04:25.481Z,45.42
2023-02-08T02:06:57.533Z,48.03
2023-02-08T02:09:47.769Z,44.95
2023-02-08T02:12:14.688Z,47.92
2023-02-08T02:14:42.948Z,46.05
2023-02-08T02:17:12.203Z,43.85
2023-02-08T02:20:06.746Z,41.08
2023-02-08T02:23:13.728Z,41.63
2023-02-08T02:26:24.226Z,44.35
2023-02-08T02:29:13.727Z,39.10
2023-02-08T02:31:52.507Z,37.30
2023-02-08T02:34:41.407Z,48.28
2023-02-08T02:37:56.257Z,42.10
2023-02-08T02:40:41.118Z,37.60
2023-02-08T02:43:40.491Z,46.80
2023-02-08T02:46:22.320Z,40.40
2023-02-08T02:48:55.142Z,44.78
2023-02-08T02:51:43.344Z,42.28
2023-02-08T02:54:21.161Z,39.25
2023-02-08T02:56:52.075Z,46.78
2023-02-08T02:59:20.162Z,51.35
2023-02-08T03:01:48.675Z,39.60
2023-02-08T03:04:39.213Z,47.65
2023-02-08T03:07:28.535Z,45.35
2023-02-08T03:10:22.862Z,43.75
2023-02-08T03:13:08.348Z,44.40
2023-02-08T03:16:01.728Z,45.72
2023-02-08T03:18:58.968Z,47.60
2023-02-08T03:21:43.424Z,45.47
2023-02-08T03:24:29.275Z,40.67
2023-02-08T03:27:31.052Z,48.70
2023-02-08T03:30:03.620Z,40.08
2023-02-08T03:32:40.255Z,49.67
2023-02-08T03:35:34.171Z,51.75
2023-02-08T03:38:05.356Z,43.17
2023-02-08T03:40:37.619Z,44.67
2023-02-08T03:43:11.916Z,47.42
2023-02-08T03:45:46.364Z,42.83
2023-02-08T03:48:16.847Z,50.10
2023-02-08T03:50:48.220Z,55.13
2023-02-08T03:53:19.141Z,46.00
2023-02-08T03:55:48.472Z,41.85
2023-02-08T03:58:42.927Z,49.58
2023-02-08T04:01:17.749Z,43.53
2023-02-08T04:03:46.382Z,47.10
2023-02-08T04:06:13.514Z,44.97
2023-02-08T04:08:40.158Z,41.10
2023-02-08T04:11:06.641Z,42.97
2023-02-08T04:13:33.271Z,49.17
2023-02-08T04:15:59.794Z,52.45
2023-02-08T04:18:27.705Z,48.78
2023-02-08T04:20:54.243Z,51.13
2023-02-08T04:23:20.867Z,40.40
2023-02-08T04:25:47.332Z,47.17
2023-02-08T04:28:13.874Z,40.70
2023-02-08T04:30:40.804Z,47.10
2023-02-08T04:33:07.533Z,46.63
2023-02-08T04:35:34.295Z,46.25
2023-02-08T04:38:00.792Z,41.78
2023-02-08T04:40:27.334Z,43.08
2023-02-08T04:42:53.826Z,42.30
2023-02-08T04:45:20.594Z,45.17
2023-02-08T04:47:54.371Z,46.17
2023-02-08T04:50:21.403Z,47.17
2023-02-08T04:52:47.901Z,45.72
2023-02-08T04:55:14.496Z,45.65
2023-02-08T04:57:41.329Z,40.28
2023-02-08T05:00:08.668Z,39.88
2023-02-08T05:02:35.646Z,40.80
2023-02-08T05:05:02.245Z,46.63
2023-02-08T05:07:28.773Z,40.33
2023-02-08T05:09:55.212Z,50.22
2023-02-08T05:12:21.690Z,39.97
2023-02-08T05:14:48.120Z,43.90
2023-02-08T05:17:14.665Z,49.95
2023-02-08T05:19:41.700Z,43.63
2023-02-08T05:22:08.466Z,46.60
2023-02-08T05:24:35.033Z,49.90
2023-02-08T05:27:01.547Z,41.80
2023-02-08T05:29:28.164Z,47.17
2023-02-08T05:31:54.778Z,41.40
2023-02-08T05:34:21.276Z,46.85
2023-02-08T05:36:47.722Z,48.83
2023-02-08T05:39:14.354Z,45.45
2023-02-08T05:41:40.810Z,38.90
2023-02-08T05:44:07.262Z,42.85
2023-02-08T05:46:38.001Z,45.13
2023-02-08T05:49:04.841Z,34.67
2023-02-08T05:51:32.575Z,43.67
2023-02-08T05:53:59.177Z,37.67
2023-02-08T05:56:25.692Z,39.67
2023-02-08T05:58:52.164Z,44.20
2023-02-08T06:01:18.842Z,42.70
2023-02-08T06:03:45.536Z,40.75
2023-02-08T06:06:12.078Z,36.38
2023-02-08T06:08:39.419Z,43.55
2023-02-08T06:11:06.811Z,47.03
2023-02-08T06:13:33.355Z,40.83
2023-02-08T06:15:59.858Z,37.95
2023-02-08T06:18:27.184Z,38.10
2023-02-08T06:20:54.904Z,41.60
2023-02-08T06:23:22.090Z,48.90
2023-02-08T06:25:48.580Z,38.92
2023-02-08T06:28:15.113Z,39.72
2023-02-08T06:30:43.372Z,45.25
2023-02-08T06:33:10.095Z,37.03
2023-02-08T06:35:36.648Z,40.30
2023-02-08T06:38:03.166Z,42.13
2023-02-08T06:40:29.660Z,43.42
2023-02-08T06:42:56.567Z,39.95
2023-02-08T06:45:23.110Z,45.85
2023-02-08T06:47:49.548Z,44.97
2023-02-08T06:50:16.156Z,36.35
2023-02-08T06:52:42.659Z,39.70
2023-02-08T06:55:09.266Z,38.33
2023-02-08T06:57:36.094Z,37.92
2023-02-08T07:00:04.270Z,40.08
2023-02-08T07:02:31.118Z,43.47
2023-02-08T07:04:57.673Z,39.90
2023-02-08T07:07:24.257Z,39.25
2023-02-08T07:09:50.765Z,38.47
2023-02-08T07:12:17.273Z,41.78
2023-02-08T07:14:44.173Z,52.67
2023-02-08T07:17:12.046Z,43.83
2023-02-08T07:19:39.011Z,53.92
2023-02-08T07:22:08.902Z,46.22
2023-02-08T07:24:38.686Z,45.72
2023-02-08T07:27:07.138Z,43.58
2023-02-08T07:29:34.587Z,45.15
2023-02-08T07:32:03.559Z,51.90
2023-02-08T07:34:32.827Z,43.83
2023-02-08T07:36:59.404Z,46.38
2023-02-08T07:39:26.474Z,44.15
2023-02-08T07:41:53.170Z,39.63
2023-02-08T07:44:20.225Z,46.63
2023-02-08T07:46:46.667Z,45.65
2023-02-08T07:49:13.176Z,45.08
2023-02-08T07:51:39.649Z,41.55
2023-02-08T07:54:06.314Z,53.22
2023-02-08T07:56:32.920Z,44.88
2023-02-08T07:58:59.547Z,48.25
2023-02-08T08:01:26.158Z,46.15
2023-02-08T08:03:53.259Z,52.00
2023-02-08T08:06:21.950Z,44.38
2023-02-08T08:08:49.194Z,42.45
2023-02-08T08:11:17.679Z,49.22
2023-02-08T08:13:44.194Z,40.25
2023-02-08T08:16:10.730Z,43.42
2023-02-08T08:18:37.238Z,44.20
2023-02-08T08:21:04.781Z,43.85
2023-02-08T08:23:33.190Z,45.28
2023-02-08T08:26:00.725Z,43.42
2023-02-08T08:28:28.058Z,45.38
2023-02-08T08:30:54.874Z,46.33
2023-02-08T08:33:21.483Z,51.35
2023-02-08T08:35:48.120Z,46.95
2023-02-08T08:38:14.673Z,52.47
2023-02-08T08:40:41.448Z,44.28
2023-02-08T08:43:08.228Z,52.20
2023-02-08T08:45:36.180Z,41.65
2023-02-08T08:48:05.670Z,45.92
2023-02-08T08:50:32.228Z,46.63
2023-02-08T08:52:58.699Z,52.17
2023-02-08T08:55:26.185Z,42.65
2023-02-08T08:57:53.583Z,47.55
2023-02-08T09:00:20.180Z,41.70
2023-02-08T09:02:46.636Z,44.72
2023-02-08T09:05:13.144Z,51.40
2023-02-08T09:07:39.624Z,51.28
2023-02-08T09:10:06.470Z,48.55
2023-02-08T09:12:33.038Z,45.75
2023-02-08T09:15:00.942Z,44.08
2023-02-08T09:17:27.609Z,48.15
2023-02-08T09:19:54.127Z,42.17
2023-02-08T09:22:20.769Z,48.55
2023-02-08T09:24:47.410Z,52.28
2023-02-08T09:27:14.828Z,44.08
2023-02-08T09:29:41.478Z,39.10
2023-02-08T09:32:10.158Z,39.25
2023-02-08T09:34:37.002Z,38.83
2023-02-08T09:37:03.438Z,40.28
2023-02-08T09:39:30.048Z,43.38
2023-02-08T09:42:11.288Z,43.63
2023-02-08T09:45:04.797Z,41.35
2023-02-08T09:47:36.931Z,36.08
2023-02-08T09:50:20.686Z,35.15
2023-02-08T09:53:00.247Z,38.38
2023-02-08T09:55:39.626Z,41.65
2023-02-08T09:58:35.839Z,37.85
2023-02-08T10:01:05.935Z,38.55
2023-02-08T10:03:42.462Z,38.65
2023-02-08T10:06:13.000Z,36.13
2023-02-08T10:08:40.696Z,37.60
2023-02-08T10:11:43.195Z,44.35
2023-02-08T10:14:40.114Z,37.15
2023-02-08T10:17:26.628Z,33.72
2023-02-08T10:20:28.543Z,31.73
2023-02-08T10:23:19.372Z,31.02
2023-02-08T10:26:15.774Z,33.97
2023-02-08T10:28:56.568Z,35.33
2023-02-08T10:32:01.710Z,32.15
2023-02-08T10:34:44.251Z,30.63
2023-02-08T10:37:12.964Z,34.17
2023-02-08T10:39:39.958Z,36.35
2023-02-08T10:42:19.631Z,40.40
2023-02-08T10:45:23.869Z,40.67
2023-02-08T10:47:54.693Z,36.20
2023-02-08T10:50:39.211Z,33.90
2023-02-08T10:53:06.522Z,34.55
2023-02-08T10:55:36.628Z,39.42
2023-02-08T10:58:06.151Z,40.70
2023-02-08T11:00:36.714Z,36.75
2023-02-08T11:03:21.778Z,35.75
2023-02-08T11:05:49.364Z,34.08
2023-02-08T11:08:22.683Z,30.45
2023-02-08T11:11:05.083Z,32.90
2023-02-08T11:13:42.631Z,35.75
2023-02-08T11:16:20.188Z,33.90
2023-02-08T11:18:52.142Z,36.50
2023-02-08T11:21:24.946Z,36.78
2023-02-08T11:23:53.828Z,31.33
2023-02-08T11:26:25.322Z,31.20
2023-02-08T11:29:06.071Z,29.05
2023-02-08T11:31:35.242Z,29.13
2023-02-08T11:34:09.621Z,27.98
2023-02-08T11:36:38.324Z,31.10
2023-02-08T11:39:23.146Z,26.58
2023-02-08T11:41:53.566Z,22.27
2023-02-08T11:44:27.950Z,21.20
2023-02-08T11:46:56.549Z,26.30
2023-02-08T11:49:26.074Z,22.60
2023-02-08T11:51:53.231Z,22.40
2023-02-08T11:54:41.388Z,19.80
2023-02-08T11:57:20.619Z,17.70
2023-02-08T11:59:48.550Z,13.40
2023-02-08T12:02:31.213Z,18.67
2023-02-08T12:04:59.015Z,17.50
2023-02-08T12:07:49.393Z,14.40
2023-02-08T12:10:30.859Z,19.05
2023-02-08T12:13:24.033Z,16.75
2023-02-08T12:16:06.131Z,14.23
2023-02-08T12:18:51.233Z,16.55
2023-02-08T12:21:21.916Z,12.10
2023-02-08T12:23:53.044Z,9.35
2023-02-08T12:26:42.081Z,13.80
2023-02-08T12:29:47.677Z,13.25
2023-02-08T12:32:42.733Z,16.08
2023-02-08T12:35:45.825Z,14.43
2023-02-08T12:38:55.400Z,14.75
2023-02-08T12:41:39.302Z,17.95
2023-02-08T12:44:41.210Z,14.70
2023-02-08T12:47:27.566Z,13.10
2023-02-08T12:50:23.951Z,14.95
2023-02-08T12:52:57.231Z,15.82
2023-02-08T12:55:26.364Z,15.07
2023-02-08T12:57:57.225Z,14.27
2023-02-08T13:00:32.637Z,15.15
2023-02-08T13:03:17.599Z,16.60
2023-02-08T13:06:01.775Z,17.55
2023-02-08T13:08:31.853Z,15.80
2023-02-08T13:11:17.868Z,13.90
2023-02-08T13:14:03.334Z,17.63
2023-02-08T13:16:40.377Z,17.63
2023-02-08T13:19:18.677Z,12.32
2023-02-08T13:21:46.128Z,13.40
2023-02-08T13:24:27.760Z,16.02
2023-02-08T13:26:54.277Z,21.63
2023-02-08T13:29:23.115Z,15.30
2023-02-08T13:31:56.640Z,12.30
2023-02-08T13:34:37.048Z,14.18
2023-02-08T13:37:16.640Z,15.63
2023-02-08T13:39:48.211Z,13.68
2023-02-08T13:42:33.576Z,20.30
2023-02-08T13:45:01.356Z,17.40
2023-02-08T13:47:32.806Z,11.70
2023-02-08T13:50:01.769Z,10.23
2023-02-08T13:52:47.143Z,13.20
2023-02-08T13:55:38.220Z,15.00
2023-02-08T13:58:34.314Z,12.07
2023-02-08T14:01:12.876Z,12.63
2023-02-08T14:03:39.363Z,14.80
2023-02-08T14:06:29.472Z,12.73
2023-02-08T14:09:17.394Z,18.05
2023-02-08T14:12:00.615Z,20.10
2023-02-08T14:14:31.263Z,20.23
2023-02-08T14:17:28.920Z,17.63
2023-02-08T14:20:01.677Z,14.32
2023-02-08T14:22:36.110Z,22.08
2023-02-08T14:25:07.940Z,20.40
2023-02-08T14:27:44.823Z,21.83
2023-02-08T14:30:11.671Z,20.23
2023-02-08T14:32:40.816Z,21.63
2023-02-08T14:35:07.492Z,23.70
2023-02-08T14:37:36.419Z,22.23
2023-02-08T14:40:23.598Z,22.92
2023-02-08T14:43:02.173Z,21.65
2023-02-08T14:45:39.989Z,22.80
2023-02-08T14:48:48.426Z,28.88
2023-02-08T14:51:28.126Z,25.88
2023-02-08T14:53:58.522Z,22.77
2023-02-08T14:56:31.921Z,24.85
2023-02-08T14:59:04.421Z,21.75
2023-02-08T15:01:45.419Z,28.55
2023-02-08T15:04:14.229Z,24.08
2023-02-08T15:07:13.425Z,22.77
2023-02-08T15:09:42.465Z,40.58
2023-02-08T15:12:17.583Z,28.95
2023-02-08T15:14:44.257Z,29.25
2023-02-08T15:17:24.525Z,28.38
2023-02-08T15:19:52.333Z,31.67
2023-02-08T15:22:39.756Z,27.27
2023-02-08T15:25:30.091Z,29.15
2023-02-08T15:28:01.831Z,34.22
2023-02-08T15:30:35.061Z,32.65
2023-02-08T15:33:08.400Z,28.25
2023-02-08T15:35:35.928Z,28.67
2023-02-08T15:38:06.995Z,32.05
2023-02-08T15:40:35.074Z,32.58
2023-02-08T15:43:12.468Z,34.45
2023-02-08T15:45:39.433Z,35.20
2023-02-08T15:48:07.512Z,29.42
2023-02-08T15:50:35.829Z,35.80
2023-02-08T15:53:06.154Z,32.70
2023-02-08T15:55:44.271Z,33.13
2023-02-08T15:58:31.820Z,39.67
2023-02-08T16:01:00.622Z,40.50
2023-02-08T16:03:29.429Z,38.20
2023-02-08T16:05:59.757Z,40.25
2023-02-08T16:08:30.595Z,35.53
2023-02-08T16:11:04.395Z,41.10
2023-02-08T16:13:35.046Z,39.67
2023-02-08T16:16:15.706Z,48.15
2023-02-08T16:18:58.257Z,40.17
2023-02-08T16:21:24.680Z,49.83
2023-02-08T16:24:05.111Z,44.42
2023-02-08T16:26:36.538Z,40.30
2023-02-08T16:29:09.644Z,43.67
2023-02-08T16:31:36.539Z,41.72
2023-02-08T16:34:06.412Z,45.38
2023-02-08T16:36:40.397Z,47.88
2023-02-08T16:39:22.512Z,50.35
2023-02-08T16:42:16.034Z,51.47
2023-02-08T16:45:02.860Z,59.30
2023-02-08T16:47:38.319Z,52.40
2023-02-08T16:50:10.951Z,52.60
2023-02-08T16:52:37.531Z,63.05
2023-02-08T16:55:05.346Z,79.45
2023-02-08T16:57:47.378Z,67.07
2023-02-08T17:00:26.093Z,71.38
2023-02-08T17:02:54.216Z,80.05
2023-02-08T17:05:27.186Z,57.80
2023-02-08T17:07:55.095Z,61.05
2023-02-08T17:10:32.681Z,61.45
2023-02-08T17:13:19.389Z,61.60
2023-02-08T17:15:51.606Z,61.78
2023-02-08T17:18:22.581Z,55.17
2023-02-08T17:20:49.111Z,54.65
2023-02-08T17:23:15.848Z,60.85
2023-02-08T17:25:43.478Z,57.00
2023-02-08T17:28:18.701Z,58.20
2023-02-08T17:30:46.862Z,53.97
2023-02-08T17:33:19.826Z,59.15
2023-02-08T17:35:50.852Z,52.50
2023-02-08T17:38:19.090Z,54.30
2023-02-08T17:40:46.160Z,58.40
2023-02-08T17:43:14.917Z,54.92
2023-02-08T17:45:43.755Z,54.20
2023-02-08T17:48:13.299Z,61.53
2023-02-08T17:50:42.825Z,59.67
2023-02-08T17:53:09.926Z,51.78
2023-02-08T17:55:36.415Z,54.50
2023-02-08T17:58:02.956Z,49.08
2023-02-08T18:00:29.415Z,56.28
2023-02-08T18:03:00.477Z,54.42
2023-02-08T18:05:27.757Z,50.65
2023-02-08T18:07:56.144Z,55.15
2023-02-08T18:10:24.386Z,54.08
2023-02-08T18:12:51.301Z,69.18
2023-02-08T18:15:20.673Z,64.18
2023-02-08T18:17:48.416Z,67.53
2023-02-08T18:20:16.115Z,52.13
2023-02-08T18:22:43.473Z,55.75
2023-02-08T18:25:11.648Z,50.33
2023-02-08T18:27:38.718Z,54.70
2023-02-08T18:30:05.828Z,50.47
2023-02-08T18:32:32.334Z,54.08
2023-02-08T18:34:58.869Z,50.80
2023-02-08T18:37:27.450Z,55.35
2023-02-08T18:39:54.008Z,51.92
2023-02-08T18:42:20.501Z,48.78
2023-02-08T18:44:48.856Z,47.28
2023-02-08T18:47:15.420Z,46.45
2023-02-08T18:49:41.956Z,53.22
2023-02-08T18:52:13.751Z,45.78
2023-02-08T18:54:41.301Z,47.83
2023-02-08T18:57:11.472Z,51.25
2023-02-08T18:59:39.406Z,45.30
2023-02-08T19:02:07.763Z,45.17
2023-02-08T19:04:41.991Z,42.88
2023-02-08T19:07:09.160Z,48.00
2023-02-08T19:09:39.488Z,39.47
2023-02-08T19:12:09.176Z,44.97
2023-02-08T19:14:35.932Z,40.35
2023-02-08T19:17:03.074Z,40.55
2023-02-08T19:19:29.816Z,42.13
2023-02-08T19:21:56.357Z,41.33
2023-02-08T19:24:23.129Z,44.83
2023-02-08T19:26:49.702Z,43.00
2023-02-08T19:29:21.778Z,36.13
2023-02-08T19:31:50.340Z,36.20
2023-02-08T19:34:17.818Z,36.53
2023-02-08T19:36:47.080Z,35.47
2023-02-08T19:39:22.435Z,38.38
2023-02-08T19:41:52.949Z,37.60
2023-02-08T19:44:20.542Z,41.15
2023-02-08T19:46:53.830Z,35.40
2023-02-08T19:49:25.662Z,34.42
2023-02-08T19:51:52.419Z,39.20
2023-02-08T19:54:19.663Z,38.15
2023-02-08T19:56:46.786Z,39.25
2023-02-08T19:59:19.209Z,40.72
2023-02-08T20:01:46.374Z,37.95
2023-02-08T20:04:14.573Z,39.65
2023-02-08T20:06:42.744Z,35.10
2023-02-08T20:09:09.276Z,38.42
2023-02-08T20:11:51.274Z,50.72
2023-02-08T20:14:25.456Z,42.63
2023-02-08T20:16:52.512Z,36.42
2023-02-08T20:19:19.043Z,37.55
2023-02-08T20:21:45.686Z,39.65
2023-02-08T20:24:12.197Z,34.95
2023-02-08T20:26:40.723Z,40.13
2023-02-08T20:29:08.327Z,33.58
2023-02-08T20:31:40.305Z,36.50
2023-02-08T20:34:09.628Z,33.65
2023-02-08T20:36:40.676Z,35.53
2023-02-08T20:39:09.289Z,33.35
2023-02-08T20:41:36.181Z,37.85
2023-02-08T20:44:02.673Z,37.42
2023-02-08T20:46:32.665Z,33.53
2023-02-08T20:49:00.898Z,37.38
2023-02-08T20:51:29.017Z,39.35
2023-02-08T20:53:59.117Z,41.83
2023-02-08T20:56:31.157Z,41.80
2023-02-08T20:59:06.481Z,35.00
2023-02-08T21:01:35.137Z,36.92
2023-02-08T21:04:02.596Z,35.95
2023-02-08T21:06:31.800Z,39.95
2023-02-08T21:09:00.443Z,30.52
2023-02-08T21:11:29.494Z,37.45
2023-02-08T21:13:56.819Z,32.35
2023-02-08T21:16:24.248Z,40.40
2023-02-08T21:18:51.158Z,37.47
2023-02-08T21:21:18.745Z,43.58
2023-02-08T21:23:46.095Z,37.13
2023-02-08T21:26:17.510Z,32.28
2023-02-08T21:28:44.559Z,42.97
2023-02-08T21:31:15.392Z,35.90
2023-02-08T21:33:43.493Z,37.70
2023-02-08T21:36:14.298Z,36.47
2023-02-08T21:38:41.209Z,34.75
2023-02-08T21:41:14.171Z,39.45
2023-02-08T21:43:40.741Z,35.92
2023-02-08T21:46:08.754Z,34.55
2023-02-08T21:48:55.513Z,33.92
2023-02-08T21:51:43.064Z,33.25
2023-02-08T21:54:30.464Z,36.35
2023-02-08T21:57:04.227Z,38.28
2023-02-08T21:59:35.202Z,41.72
2023-02-08T22:02:01.800Z,39.42
2023-02-08T22:04:28.378Z,43.42
2023-02-08T22:06:55.044Z,46.28
2023-02-08T22:09:21.452Z,45.10
2023-02-08T22:11:49.228Z,38.78
2023-02-08T22:14:16.034Z,42.05
2023-02-08T22:16:44.098Z,41.42
2023-02-08T22:19:10.555Z,43.65
2023-02-08T22:21:37.209Z,42.60
2023-02-08T22:24:03.859Z,40.45
2023-02-08T22:26:30.621Z,37.53
2023-02-08T22:28:57.105Z,41.10
2023-02-08T22:31:23.993Z,42.80
2023-02-08T22:33:53.424Z,37.97
2023-02-08T22:36:20.933Z,39.60
2023-02-08T22:38:47.694Z,45.47
2023-02-08T22:41:16.682Z,35.28
2023-02-08T22:43:43.724Z,42.38
2023-02-08T22:46:10.373Z,35.70
2023-02-08T22:48:37.607Z,34.65
2023-02-08T22:51:13.723Z,40.72
2023-02-08T22:53:40.705Z,36.20
2023-02-08T22:56:07.267Z,37.35
2023-02-08T22:58:34.057Z,44.78
2023-02-08T23:01:00.595Z,37.00
2023-02-08T23:03:27.366Z,41.22
2023-02-08T23:05:54.743Z,41.08
2023-02-08T23:08:22.552Z,41.67
2023-02-08T23:10:49.381Z,41.03
2023-02-08T23:13:16.227Z,39.38
2023-02-08T23:15:44.918Z,38.97
2023-02-08T23:18:11.648Z,39.75
2023-02-08T23:20:40.731Z,31.77
2023-02-08T23:23:08.677Z,44.50
2023-02-08T23:25:38.622Z,41.70
2023-02-08T23:28:05.805Z,35.17
2023-02-08T23:30:32.342Z,37.13
2023-02-08T23:32:58.849Z,42.13
2023-02-08T23:35:25.590Z,42.30
2023-02-08T23:37:52.230Z,42.78
2023-02-08T23:40:18.735Z,39.38
2023-02-08T23:42:45.242Z,41.08
2023-02-08T23:45:11.941Z,43.03
2023-02-08T23:47:39.530Z,41.03
2023-02-08T23:50:07.900Z,39.70
2023-02-08T23:52:35.836Z,35.72
2023-02-08T23:55:03.428Z,39.13
2023-02-08T23:57:36.975Z,39.83
